createdAt,value
2023-01-25T00:01:58.374Z,63.65
2023-01-25T00:04:28.294Z,71.05
2023-01-25T00:06:57.054Z,70.97
2023-01-25T00:09:26.900Z,67.63
2023-01-25T00:11:57.345Z,71.40
2023-01-25T00:14:27.830Z,68.97
2023-01-25T00:16:56.127Z,72.85
2023-01-25T00:19:24.136Z,68.28
2023-01-25T00:21:52.096Z,69.07
2023-01-25T00:24:23.043Z,67.95
2023-01-25T00:26:50.969Z,70.95
2023-01-25T00:29:19.010Z,69.38
2023-01-25T00:32:03.343Z,68.22
2023-01-25T00:34:39.417Z,68.72
2023-01-25T00:37:21.673Z,70.97
2023-01-25T00:39:49.493Z,67.90
2023-01-25T00:42:18.945Z,69.57
2023-01-25T00:44:47.079Z,72.53
2023-01-25T00:47:16.318Z,70.18
2023-01-25T00:49:47.138Z,71.68
2023-01-25T00:52:15.045Z,70.43
2023-01-25T00:54:43.242Z,71.72
2023-01-25T00:57:10.912Z,72.35
2023-01-25T00:59:38.932Z,71.30
2023-01-25T01:02:07.152Z,71.65
2023-01-25T01:04:34.741Z,72.05
2023-01-25T01:07:03.962Z,71.75
2023-01-25T01:09:31.570Z,71.45
2023-01-25T01:11:59.291Z,71.45
2023-01-25T01:14:26.864Z,72.28
2023-01-25T01:16:56.409Z,70.30
2023-01-25T01:19:26.717Z,69.93
2023-01-25T01:21:54.956Z,68.88
2023-01-25T01:24:22.877Z,71.85
2023-01-25T01:26:50.472Z,75.82
2023-01-25T01:29:18.028Z,70.63
2023-01-25T01:31:45.541Z,73.78
2023-01-25T01:34:14.860Z,69.95
2023-01-25T01:36:42.647Z,72.00
2023-01-25T01:39:10.287Z,71.28
2023-01-25T01:41:38.639Z,71.05
2023-01-25T01:44:09.917Z,73.72
2023-01-25T01:46:39.228Z,70.25
2023-01-25T01:49:28.588Z,73.13
2023-01-25T01:52:00.790Z,74.32
2023-01-25T01:54:58.664Z,77.28
2023-01-25T01:57:48.950Z,73.22
2023-01-25T02:00:22.925Z,72.55
2023-01-25T02:02:51.245Z,78.05
2023-01-25T02:05:25.386Z,71.53
2023-01-25T02:07:55.223Z,75.30
2023-01-25T02:10:25.054Z,76.47
2023-01-25T02:12:58.748Z,74.00
2023-01-25T02:15:30.302Z,76.68
2023-01-25T02:17:57.819Z,78.10
2023-01-25T02:20:37.860Z,76.43
2023-01-25T02:23:32.665Z,75.47
2023-01-25T02:26:04.535Z,80.55
2023-01-25T02:28:37.500Z,76.28
2023-01-25T02:31:05.262Z,79.38
2023-01-25T02:33:32.845Z,78.95
2023-01-25T02:36:02.703Z,79.03
2023-01-25T02:38:42.173Z,84.72
2023-01-25T02:41:25.818Z,76.80
2023-01-25T02:43:55.072Z,79.00
2023-01-25T02:46:32.356Z,74.72
2023-01-25T02:49:01.863Z,77.70
2023-01-25T02:51:33.165Z,82.90
2023-01-25T02:54:01.601Z,79.93
2023-01-25T02:56:30.227Z,80.85
2023-01-25T02:58:57.816Z,79.60
2023-01-25T03:01:25.611Z,83.07
2023-01-25T03:03:53.253Z,79.10
2023-01-25T03:06:20.811Z,76.88
2023-01-25T03:08:48.376Z,78.45
2023-01-25T03:11:16.446Z,84.15
2023-01-25T03:13:44.467Z,86.35
2023-01-25T03:16:13.426Z,82.68
2023-01-25T03:18:41.798Z,83.38
2023-01-25T03:21:19.255Z,79.85
2023-01-25T03:23:47.749Z,77.22
2023-01-25T03:26:20.436Z,78.32
2023-01-25T03:28:47.834Z,80.57
2023-01-25T03:31:17.199Z,81.18
2023-01-25T03:33:45.109Z,81.53
2023-01-25T03:36:12.960Z,76.75
2023-01-25T03:38:40.636Z,77.13
2023-01-25T03:41:26.988Z,77.20
2023-01-25T03:43:54.621Z,80.38
2023-01-25T03:46:22.670Z,80.20
2023-01-25T03:48:51.790Z,80.70
2023-01-25T03:51:19.314Z,79.00
2023-01-25T03:53:48.757Z,77.50
2023-01-25T03:56:20.812Z,79.65
2023-01-25T03:58:48.402Z,75.53
2023-01-25T04:01:16.292Z,77.47
2023-01-25T04:03:45.203Z,74.28
2023-01-25T04:06:12.716Z,78.75
2023-01-25T04:08:40.278Z,75.25
2023-01-25T04:11:09.769Z,76.80
2023-01-25T04:13:39.653Z,80.43
2023-01-25T04:16:10.239Z,75.75
2023-01-25T04:18:38.601Z,73.03
2023-01-25T04:21:06.417Z,75.53
2023-01-25T04:23:33.902Z,79.13
2023-01-25T04:26:05.939Z,80.28
2023-01-25T04:28:36.004Z,75.20
2023-01-25T04:31:07.399Z,78.00
2023-01-25T04:33:36.918Z,75.30
2023-01-25T04:36:05.992Z,74.55
2023-01-25T04:38:33.615Z,73.72
2023-01-25T04:41:01.462Z,73.68
2023-01-25T04:43:32.298Z,76.63
2023-01-25T04:46:03.636Z,75.95
2023-01-25T04:48:31.943Z,80.50
2023-01-25T04:50:59.392Z,74.57
2023-01-25T04:53:27.245Z,71.60
2023-01-25T04:55:57.624Z,70.97
2023-01-25T04:58:25.143Z,70.68
2023-01-25T05:00:52.752Z,72.15
2023-01-25T05:03:20.373Z,75.53
2023-01-25T05:05:48.560Z,72.25
2023-01-25T05:08:17.151Z,70.18
2023-01-25T05:10:45.188Z,74.88
2023-01-25T05:13:13.208Z,78.43
2023-01-25T05:15:41.792Z,78.97
2023-01-25T05:18:09.335Z,79.97
2023-01-25T05:20:36.866Z,79.97
2023-01-25T05:23:05.891Z,78.90
2023-01-25T05:25:52.243Z,81.03
2023-01-25T05:28:19.849Z,77.55
2023-01-25T05:30:47.386Z,78.32
2023-01-25T05:34:01.663Z,77.82
2023-01-25T05:36:30.582Z,85.05
2023-01-25T05:38:58.509Z,88.25
2023-01-25T05:41:26.014Z,86.93
2023-01-25T05:43:53.535Z,88.07
2023-01-25T05:46:21.441Z,89.88
2023-01-25T05:48:49.253Z,88.97
2023-01-25T05:51:17.469Z,97.35
2023-01-25T05:53:45.152Z,87.80
2023-01-25T05:56:12.653Z,90.50
2023-01-25T05:58:40.430Z,94.82
2023-01-25T06:01:09.101Z,93.78
2023-01-25T06:03:37.783Z,95.07
2023-01-25T06:06:06.803Z,96.70
2023-01-25T06:08:34.457Z,95.97
2023-01-25T06:11:11.928Z,98.68
2023-01-25T06:13:42.522Z,97.82
2023-01-25T06:16:10.371Z,103.97
2023-01-25T06:18:41.298Z,101.50
2023-01-25T06:21:09.368Z,101.00
2023-01-25T06:23:37.642Z,103.45
2023-01-25T06:26:11.352Z,110.05
2023-01-25T06:28:39.599Z,103.28
2023-01-25T06:31:15.475Z,100.07
2023-01-25T06:33:44.362Z,102.25
2023-01-25T06:36:14.965Z,97.55
2023-01-25T06:38:42.820Z,100.38
2023-01-25T06:41:13.537Z,106.75
2023-01-25T06:43:41.305Z,101.88
2023-01-25T06:46:12.846Z,103.05
2023-01-25T06:48:43.756Z,103.75
2023-01-25T06:51:13.989Z,101.40
2023-01-25T06:53:47.450Z,101.47
2023-01-25T06:56:22.416Z,108.53
2023-01-25T06:58:51.919Z,103.15
2023-01-25T07:01:28.530Z,100.32
2023-01-25T07:04:00.208Z,104.03
2023-01-25T07:06:37.630Z,104.05
2023-01-25T07:09:08.939Z,105.00
2023-01-25T07:11:37.861Z,99.32
2023-01-25T07:14:10.378Z,99.47
2023-01-25T07:16:46.492Z,106.93
2023-01-25T07:19:14.596Z,97.88
2023-01-25T07:21:42.879Z,106.63
2023-01-25T07:24:17.542Z,103.85
2023-01-25T07:26:46.192Z,102.18
2023-01-25T07:29:16.183Z,102.95
2023-01-25T07:31:45.104Z,100.38
2023-01-25T07:34:23.689Z,102.25
2023-01-25T07:36:56.619Z,98.20
2023-01-25T07:39:24.416Z,100.53
2023-01-25T07:41:52.688Z,95.63
2023-01-25T07:44:21.584Z,100.95
2023-01-25T07:46:50.433Z,99.20
2023-01-25T07:49:19.848Z,102.30
2023-01-25T07:51:51.658Z,106.68
2023-01-25T07:57:00.692Z,104.18
2023-01-25T07:59:36.301Z,100.95
2023-01-25T08:02:04.305Z,103.28
2023-01-25T08:04:32.031Z,104.03
2023-01-25T08:07:00.136Z,102.85
2023-01-25T08:09:28.981Z,104.32
2023-01-25T08:11:56.956Z,106.63
2023-01-25T08:14:26.102Z,101.65
2023-01-25T08:16:54.011Z,105.18
2023-01-25T08:19:23.721Z,108.85
2023-01-25T08:21:55.035Z,106.97
2023-01-25T08:24:25.638Z,106.53
2023-01-25T08:32:28.676Z,102.55
2023-01-25T08:34:57.631Z,109.45
2023-01-25T08:37:51.179Z,110.30
2023-01-25T08:40:24.018Z,104.28
2023-01-25T08:46:00.983Z,105.45
2023-01-25T08:48:33.093Z,103.30
2023-01-25T08:51:05.327Z,103.50
2023-01-25T08:53:54.038Z,99.18
2023-01-25T08:56:29.709Z,97.05
2023-01-25T09:01:54.377Z,104.40
2023-01-25T09:07:12.247Z,100.45
2023-01-25T09:09:41.442Z,99.68
2023-01-25T09:12:15.942Z,106.50
2023-01-25T09:17:46.181Z,105.47
2023-01-25T09:22:46.479Z,102.53
2023-01-25T09:25:19.465Z,100.32
2023-01-25T09:27:53.944Z,104.20
2023-01-25T09:30:30.625Z,98.60
2023-01-25T09:35:50.449Z,108.30
2023-01-25T09:41:13.126Z,106.05
2023-01-25T09:44:18.283Z,107.28
2023-01-25T09:46:49.732Z,109.00
2023-01-25T09:49:35.100Z,103.13
2023-01-25T09:52:32.102Z,108.00
2023-01-25T09:55:02.949Z,108.82
2023-01-25T09:57:43.700Z,106.15
2023-01-25T10:00:17.513Z,106.32
2023-01-25T10:03:08.150Z,108.72
2023-01-25T10:09:13.673Z,110.95
2023-01-25T10:11:55.045Z,111.07
2023-01-25T10:20:05.183Z,111.65
2023-01-25T10:22:57.196Z,112.00
2023-01-25T10:26:12.322Z,122.32
2023-01-25T10:29:15.074Z,116.35
2023-01-25T10:31:55.068Z,113.60
2023-01-25T10:34:54.995Z,115.57
2023-01-25T10:37:39.946Z,118.05
2023-01-25T10:40:34.604Z,116.30
2023-01-25T10:43:07.040Z,116.03
2023-01-25T10:45:38.693Z,112.63
2023-01-25T10:48:29.077Z,109.95
2023-01-25T10:50:58.697Z,117.93
2023-01-25T10:53:37.865Z,110.90
2023-01-25T10:56:17.314Z,115.53
2023-01-25T10:58:56.239Z,107.13
2023-01-25T11:01:31.705Z,114.22
2023-01-25T11:04:24.253Z,109.47
2023-01-25T11:06:53.757Z,110.78
2023-01-25T11:09:35.708Z,100.78
2023-01-25T11:12:35.961Z,99.90
2023-01-25T11:15:27.298Z,103.60
2023-01-25T11:18:14.078Z,105.55
2023-01-25T11:20:41.881Z,101.70
2023-01-25T11:23:27.380Z,104.43
2023-01-25T11:25:58.713Z,105.45
2023-01-25T11:37:53.783Z,103.47
2023-01-25T11:40:41.155Z,104.20
2023-01-25T11:43:44.245Z,101.15
2023-01-25T11:46:47.795Z,99.18
2023-01-25T11:50:19.031Z,115.75
2023-01-25T12:48:08.233Z,91.53
2023-01-25T12:51:01.812Z,95.32
2023-01-25T12:53:44.728Z,99.30
2023-01-25T12:56:25.343Z,100.03
2023-01-25T12:59:03.602Z,95.15
2023-01-25T13:02:09.812Z,101.63
2023-01-25T13:04:45.103Z,96.60
2023-01-25T13:07:16.815Z,92.03
2023-01-25T13:09:58.716Z,96.25
2023-01-25T13:12:27.093Z,97.13
2023-01-25T13:14:55.527Z,94.25
2023-01-25T13:17:39.365Z,92.93
2023-01-25T13:20:55.239Z,92.13
2023-01-25T13:23:47.671Z,88.97
2023-01-25T13:26:46.977Z,88.45
2023-01-25T13:29:41.121Z,89.70
2023-01-25T13:32:35.730Z,91.57
2023-01-25T13:35:08.054Z,95.13
2023-01-25T13:37:39.032Z,91.28
2023-01-25T13:40:29.039Z,97.85
2023-01-25T13:43:02.374Z,92.88
2023-01-25T13:45:35.701Z,96.80
2023-01-25T13:50:54.748Z,97.43
2023-01-25T13:53:35.622Z,101.07
2023-01-25T13:56:04.252Z,105.85
2023-01-25T13:58:46.191Z,102.55
2023-01-25T14:01:20.947Z,93.50
2023-01-25T14:03:55.462Z,100.00
2023-01-25T14:06:28.102Z,103.25
2023-01-25T14:09:03.373Z,106.55
2023-01-25T14:12:03.180Z,103.22
2023-01-25T14:14:39.539Z,109.15
2023-01-25T14:17:21.528Z,112.50
2023-01-25T14:19:53.407Z,112.95
2023-01-25T14:22:32.095Z,117.13
2023-01-25T14:25:23.179Z,117.32
2023-01-25T14:28:01.577Z,120.03
2023-01-25T14:30:33.688Z,114.70
2023-01-25T14:33:04.919Z,113.78
2023-01-25T14:35:43.629Z,114.85
2023-01-25T14:38:39.971Z,121.78
2023-01-25T14:41:08.073Z,125.30
2023-01-25T14:43:38.005Z,138.23
2023-01-25T14:46:31.244Z,131.23
2023-01-25T14:51:58.750Z,146.35
2023-01-25T14:54:36.957Z,148.98
2023-01-25T14:57:06.507Z,152.70
2023-01-25T14:59:45.954Z,151.07
2023-01-25T15:02:33.141Z,159.25
2023-01-25T15:05:21.503Z,160.57
2023-01-25T15:07:54.209Z,163.93
2023-01-25T15:10:52.471Z,162.82
2023-01-25T15:13:27.687Z,168.75
2023-01-25T15:16:03.082Z,171.05
2023-01-25T15:18:51.397Z,164.77
2023-01-25T15:21:38.729Z,176.65
2023-01-25T15:24:13.338Z,177.55
2023-01-25T15:26:43.985Z,177.88
2023-01-25T15:29:21.976Z,176.38
2023-01-25T15:31:51.239Z,185.80
2023-01-25T15:34:28.895Z,175.85
2023-01-25T15:36:58.783Z,173.93
2023-01-25T15:39:27.308Z,176.10
2023-01-25T15:41:56.201Z,174.23
2023-01-25T15:44:29.425Z,170.30
2023-01-25T15:47:00.008Z,167.93
2023-01-25T15:49:29.927Z,162.63
2023-01-25T15:52:01.740Z,172.73
2023-01-25T15:54:30.154Z,165.27
2023-01-25T15:56:58.924Z,154.60
2023-01-25T15:59:27.461Z,153.05
2023-01-25T16:01:55.219Z,160.43
2023-01-25T16:04:26.673Z,162.38
2023-01-25T16:06:57.175Z,157.27
2023-01-25T16:09:30.991Z,166.80
2023-01-25T16:12:01.990Z,161.57
2023-01-25T16:14:32.132Z,165.80
2023-01-25T16:17:03.665Z,169.02
2023-01-25T16:19:47.065Z,170.15
2023-01-25T16:22:19.007Z,167.48
2023-01-25T16:24:46.645Z,177.53
2023-01-25T16:27:38.003Z,172.15
2023-01-25T16:30:12.990Z,168.18
2023-01-25T16:32:40.583Z,177.00
2023-01-25T16:35:17.180Z,193.68
2023-01-25T16:37:45.731Z,187.23
2023-01-25T16:40:34.275Z,187.75
2023-01-25T16:43:02.980Z,186.13
2023-01-25T16:45:35.356Z,188.60
2023-01-25T16:48:05.682Z,191.80
2023-01-25T16:50:34.551Z,193.75
2023-01-25T16:53:02.952Z,197.05
2023-01-25T16:55:30.572Z,205.57
2023-01-25T16:57:58.732Z,213.50
2023-01-25T17:00:26.559Z,216.40
2023-01-25T17:02:59.479Z,216.68
2023-01-25T17:05:33.160Z,226.98
2023-01-25T17:08:00.977Z,232.68
2023-01-25T17:10:29.899Z,215.77
2023-01-25T17:12:57.849Z,216.73
2023-01-25T17:15:25.990Z,230.23
2023-01-25T17:17:53.700Z,220.68
2023-01-25T17:20:24.838Z,228.63
2023-01-25T17:22:52.436Z,226.43
2023-01-25T17:25:20.493Z,227.35
2023-01-25T17:27:47.913Z,231.98
2023-01-25T17:30:16.683Z,222.20
2023-01-25T17:32:44.404Z,229.32
2023-01-25T17:35:12.035Z,218.13
2023-01-25T17:37:41.881Z,223.85
2023-01-25T17:40:12.153Z,216.18
2023-01-25T17:42:41.993Z,220.85
2023-01-25T17:45:10.412Z,213.15
2023-01-25T17:47:38.183Z,212.07
2023-01-25T17:50:08.234Z,216.93
2023-01-25T17:52:36.318Z,217.88
2023-01-25T17:55:05.714Z,203.18
2023-01-25T17:57:40.702Z,214.77
2023-01-25T18:00:19.104Z,220.52
2023-01-25T18:02:47.608Z,223.02
2023-01-25T18:05:15.894Z,226.82
2023-01-25T18:07:57.021Z,230.10
2023-01-25T18:10:32.582Z,238.23
2023-01-25T18:13:07.630Z,240.02
2023-01-25T18:18:40.587Z,255.20
2023-01-25T18:24:57.258Z,263.05
2023-01-25T18:31:21.243Z,260.42
2023-01-25T18:36:52.521Z,257.83
2023-01-25T18:39:26.914Z,262.77
2023-01-25T18:43:05.264Z,261.38
2023-01-25T18:45:55.010Z,262.60
2023-01-25T19:00:36.916Z,274.55
2023-01-25T19:03:39.619Z,279.30
2023-01-25T19:06:09.813Z,271.60
2023-01-25T19:08:41.471Z,280.48
2023-01-25T19:11:11.483Z,291.15
2023-01-25T19:13:40.331Z,291.40
2023-01-25T19:16:09.014Z,291.60
2023-01-25T19:18:47.185Z,284.33
2023-01-25T19:21:17.411Z,284.10
2023-01-25T19:23:45.889Z,290.55
2023-01-25T19:26:15.784Z,292.80
2023-01-25T19:28:44.177Z,298.15
2023-01-25T19:31:16.199Z,300.83
2023-01-25T19:33:45.606Z,303.58
2023-01-25T19:36:16.823Z,306.95
2023-01-25T19:38:46.473Z,302.45
2023-01-25T19:41:16.341Z,313.80
2023-01-25T19:43:45.602Z,299.42
2023-01-25T19:46:21.745Z,294.33
2023-01-25T19:48:51.422Z,302.15
2023-01-25T19:51:26.237Z,315.02
2023-01-25T19:54:03.460Z,306.70
2023-01-25T19:56:36.866Z,315.23
2023-01-25T19:59:06.167Z,317.08
2023-01-25T20:01:36.894Z,305.02
2023-01-25T20:04:08.254Z,306.38
2023-01-25T20:06:36.403Z,312.35
2023-01-25T20:09:04.213Z,318.88
2023-01-25T20:11:34.606Z,329.15
2023-01-25T20:14:04.722Z,329.83
2023-01-25T20:16:33.449Z,336.42
2023-01-25T20:19:02.304Z,351.63
2023-01-25T20:21:31.635Z,322.30
2023-01-25T20:24:04.981Z,360.63
2023-01-25T20:26:36.734Z,343.00
2023-01-25T20:29:06.483Z,346.27
2023-01-25T20:31:38.030Z,345.10
2023-01-25T20:34:12.314Z,369.90
2023-01-25T20:36:42.571Z,384.73
2023-01-25T20:39:14.339Z,381.92
2023-01-25T20:41:42.282Z,374.90
2023-01-25T20:44:11.828Z,387.80
2023-01-25T20:46:41.393Z,397.10
2023-01-25T20:49:17.330Z,413.00
2023-01-25T20:51:45.129Z,388.30
2023-01-25T20:54:12.749Z,398.77
2023-01-25T20:56:44.073Z,404.30
2023-01-25T20:59:12.106Z,394.73
2023-01-25T21:01:40.580Z,404.80
2023-01-25T21:04:12.131Z,409.95
2023-01-25T21:06:39.830Z,397.40
2023-01-25T21:09:07.896Z,392.98
2023-01-25T21:11:37.789Z,424.75
2023-01-25T21:14:13.332Z,414.52
2023-01-25T21:16:40.916Z,381.58
2023-01-25T21:19:10.945Z,401.15
2023-01-25T21:21:39.171Z,391.92
2023-01-25T21:24:07.279Z,398.33
2023-01-25T21:26:39.251Z,389.13
2023-01-25T21:29:08.344Z,394.70
2023-01-25T21:31:38.296Z,392.30
2023-01-25T21:34:07.138Z,388.77
2023-01-25T21:36:34.682Z,403.42
2023-01-25T21:39:02.294Z,396.65
2023-01-25T21:41:33.919Z,394.52
2023-01-25T21:44:20.263Z,411.88
2023-01-25T21:47:12.394Z,443.08
2023-01-25T21:49:54.564Z,408.70
2023-01-25T21:52:22.104Z,361.88
2023-01-25T21:54:49.858Z,398.73
2023-01-25T21:57:17.935Z,392.30
2023-01-25T21:59:45.589Z,383.63
2023-01-25T22:02:15.920Z,354.20
2023-01-25T22:04:43.649Z,388.55
2023-01-25T22:07:12.002Z,361.10
2023-01-25T22:09:39.523Z,392.25
2023-01-25T22:12:07.020Z,364.92
2023-01-25T22:14:35.064Z,353.15
2023-01-25T22:17:03.525Z,378.95
2023-01-25T22:19:32.580Z,342.75
2023-01-25T22:22:01.815Z,303.95
2023-01-25T22:24:29.260Z,297.88
2023-01-25T22:27:37.900Z,307.27
2023-01-25T22:30:07.106Z,299.95
2023-01-25T22:32:36.951Z,294.63
2023-01-25T22:35:04.716Z,324.95
2023-01-25T22:37:35.858Z,302.08
2023-01-25T22:40:03.501Z,303.50
2023-01-25T22:42:30.953Z,338.15
2023-01-25T22:44:58.798Z,336.02
2023-01-25T22:47:26.479Z,298.20
2023-01-25T22:49:53.969Z,297.98
2023-01-25T22:52:21.630Z,317.90
2023-01-25T22:54:50.385Z,301.38
2023-01-25T22:57:18.083Z,289.77
2023-01-25T22:59:45.519Z,324.95
2023-01-25T23:02:14.070Z,338.50
2023-01-25T23:04:41.488Z,293.30
2023-01-25T23:07:19.112Z,291.73
2023-01-25T23:09:51.798Z,295.23
2023-01-25T23:12:19.616Z,287.67
2023-01-25T23:14:54.266Z,288.67
2023-01-25T23:17:42.242Z,292.30
2023-01-25T23:20:12.991Z,248.45
2023-01-25T23:22:40.814Z,243.73
2023-01-25T23:25:09.000Z,243.23
2023-01-25T23:27:37.390Z,267.67
2023-01-25T23:30:07.353Z,270.55
2023-01-25T23:32:35.199Z,241.13
2023-01-25T23:35:03.074Z,235.95
2023-01-25T23:37:30.584Z,264.27
2023-01-25T23:39:58.106Z,245.88
2023-01-25T23:42:25.629Z,237.25
2023-01-25T23:44:53.101Z,233.95
2023-01-25T23:47:25.906Z,247.90
2023-01-25T23:52:20.702Z,215.55
2023-01-25T23:54:48.424Z,221.75
2023-01-25T23:57:15.903Z,216.25
2023-01-25T23:59:43.351Z,227.65
